sensor_id;sensor_type;location;lat;lon;timestamp;pressure;altitude;pressure_sealevel;temperature;humidity
63907;BME280;50075;49.484;11.238;2022-09-27T00:01:58;96209.06;;;12.61;100.00
63907;BME280;50075;49.484;11.238;2022-09-27T00:04:25;96206.88;;;13.00;100.00
63907;BME280;50075;49.484;11.238;2022-09-27T00:06:50;96206.56;;;12.48;100.00
63907;BME280;50075;49.484;11.238;2022-09-27T00:09:15;96207.97;;;12.64;100.00
63907;BME280;50075;49.484;11.238;2022-09-27T00:11:41;96203.94;;;12.71;100.00
63907;BME280;50075;49.484;11.238;2022-09-27T00:14:08;96207.38;;;12.60;100.00
63907;BME280;50075;49.484;11.238;2022-09-27T00:16:37;96199.78;;;12.68;100.00
63907;BME280;50075;49.484;11.238;2022-09-27T00:19:07;96197.53;;;12.52;100.00
63907;BME280;50075;49.484;11.238;2022-09-27T00:21:33;96198.47;;;12.74;100.00
63907;BME280;50075;49.484;11.238;2022-09-27T00:24:00;96190.28;;;12.33;100.00
63907;BME280;50075;49.484;11.238;2022-09-27T00:26:26;96192.06;;;12.44;100.00
63907;BME280;50075;49.484;11.238;2022-09-27T00:28:51;96185.63;;;12.60;100.00
63907;BME280;50075;49.484;11.238;2022-09-27T00:31:27;96184.09;;;12.68;100.00
63907;BME280;50075;49.484;11.238;2022-09-27T00:33:59;96184.91;;;12.69;100.00
63907;BME280;50075;49.484;11.238;2022-09-27T00:36:26;96175.34;;;13.02;100.00
63907;BME280;50075;49.484;11.238;2022-09-27T00:38:52;96171.50;;;12.40;100.00
63907;BME280;50075;49.484;11.238;2022-09-27T00:41:29;96169.94;;;12.60;100.00
63907;BME280;50075;49.484;11.238;2022-09-27T00:44:01;96161.84;;;12.51;100.00
63907;BME280;50075;49.484;11.238;2022-09-27T00:46:47;96158.28;;;12.64;100.00
63907;BME280;50075;49.484;11.238;2022-09-27T00:49:24;96156.88;;;12.37;100.00
63907;BME280;50075;49.484;11.238;2022-09-27T00:51:58;96150.19;;;12.67;100.00
63907;BME280;50075;49.484;11.238;2022-09-27T00:54:27;96146.66;;;12.45;100.00
63907;BME280;50075;49.484;11.238;2022-09-27T00:56:54;96151.88;;;12.23;100.00
63907;BME280;50075;49.484;11.238;2022-09-27T00:59:29;96149.47;;;13.31;100.00
63907;BME280;50075;49.484;11.238;2022-09-27T01:01:56;96142.69;;;12.62;100.00
63907;BME280;50075;49.484;11.238;2022-09-27T01:04:26;96141.03;;;12.72;100.00
63907;BME280;50075;49.484;11.238;2022-09-27T01:06:52;96128.97;;;12.92;100.00
63907;BME280;50075;49.484;11.238;2022-09-27T01:09:17;96130.47;;;12.51;100.00
63907;BME280;50075;49.484;11.238;2022-09-27T01:20:01;96122.44;;;12.21;100.00
63907;BME280;50075;49.484;11.238;2022-09-27T01:25:41;96113.88;;;12.19;100.00
63907;BME280;50075;49.484;11.238;2022-09-27T01:33:35;96108.53;;;12.31;100.00
63907;BME280;50075;49.484;11.238;2022-09-27T01:46:47;96107.41;;;12.57;100.00
63907;BME280;50075;49.484;11.238;2022-09-27T01:49:17;96101.50;;;12.32;100.00
63907;BME280;50075;49.484;11.238;2022-09-27T01:51:54;96092.94;;;12.52;100.00
63907;BME280;50075;49.484;11.238;2022-09-27T01:54:29;96092.00;;;12.08;100.00
63907;BME280;50075;49.484;11.238;2022-09-27T01:56:57;96100.78;;;12.07;100.00
63907;BME280;50075;49.484;11.238;2022-09-27T01:59:31;96096.84;;;13.02;100.00
63907;BME280;50075;49.484;11.238;2022-09-27T02:02:05;96090.47;;;12.17;100.00
63907;BME280;50075;49.484;11.238;2022-09-27T02:04:33;96080.75;;;12.74;100.00
63907;BME280;50075;49.484;11.238;2022-09-27T02:07:13;96088.91;;;12.37;100.00
63907;BME280;50075;49.484;11.238;2022-09-27T02:09:47;96083.56;;;12.16;100.00
63907;BME280;50075;49.484;11.238;2022-09-27T02:12:18;96084.16;;;12.20;100.00
63907;BME280;50075;49.484;11.238;2022-09-27T02:15:03;96078.69;;;12.45;100.00
63907;BME280;50075;49.484;11.238;2022-09-27T02:22:55;96070.59;;;12.48;100.00
63907;BME280;50075;49.484;11.238;2022-09-27T02:25:32;96076.03;;;12.57;100.00
63907;BME280;50075;49.484;11.238;2022-09-27T02:28:16;96075.13;;;12.24;100.00
63907;BME280;50075;49.484;11.238;2022-09-27T02:30:44;96064.75;;;12.56;100.00
63907;BME280;50075;49.484;11.238;2022-09-27T02:33:09;96070.41;;;12.06;100.00
63907;BME280;50075;49.484;11.238;2022-09-27T02:35:35;96073.00;;;12.29;100.00
63907;BME280;50075;49.484;11.238;2022-09-27T02:38:02;96067.53;;;11.98;100.00
63907;BME280;50075;49.484;11.238;2022-09-27T02:40:34;96063.88;;;12.01;100.00
63907;BME280;50075;49.484;11.238;2022-09-27T02:43:02;96057.69;;;12.24;100.00
63907;BME280;50075;49.484;11.238;2022-09-27T02:45:35;96068.72;;;12.17;100.00
63907;BME280;50075;49.484;11.238;2022-09-27T02:48:35;96068.47;;;12.31;100.00
63907;BME280;50075;49.484;11.238;2022-09-27T02:56:32;96051.94;;;12.42;100.00
63907;BME280;50075;49.484;11.238;2022-09-27T03:04:26;96046.38;;;12.24;100.00
63907;BME280;50075;49.484;11.238;2022-09-27T03:06:53;96041.63;;;12.29;100.00
63907;BME280;50075;49.484;11.238;2022-09-27T03:09:23;96040.72;;;12.19;100.00
63907;BME280;50075;49.484;11.238;2022-09-27T03:11:49;96040.72;;;12.19;100.00
63907;BME280;50075;49.484;11.238;2022-09-27T03:14:15;96036.06;;;12.66;100.00
63907;BME280;50075;49.484;11.238;2022-09-27T03:16:41;96044.13;;;12.74;100.00
63907;BME280;50075;49.484;11.238;2022-09-27T03:19:08;96039.13;;;12.27;100.00
63907;BME280;50075;49.484;11.238;2022-09-27T03:21:33;96047.84;;;12.60;100.00
63907;BME280;50075;49.484;11.238;2022-09-27T03:23:59;96051.09;;;12.52;100.00
63907;BME280;50075;49.484;11.238;2022-09-27T03:26:25;96044.44;;;13.13;100.00
63907;BME280;50075;49.484;11.238;2022-09-27T03:28:51;96038.50;;;12.46;100.00
63907;BME280;50075;49.484;11.238;2022-09-27T03:31:16;96049.41;;;12.51;100.00
63907;BME280;50075;49.484;11.238;2022-09-27T03:33:42;96036.88;;;12.23;100.00
63907;BME280;50075;49.484;11.238;2022-09-27T03:36:07;96042.59;;;12.05;100.00
63907;BME280;50075;49.484;11.238;2022-09-27T03:38:32;96040.72;;;12.19;100.00
63907;BME280;50075;49.484;11.238;2022-09-27T03:40:58;96036.03;;;12.45;100.00
63907;BME280;50075;49.484;11.238;2022-09-27T03:43:24;96030.00;;;12.22;100.00
63907;BME280;50075;49.484;11.238;2022-09-27T03:45:49;96028.34;;;11.98;100.00
63907;BME280;50075;49.484;11.238;2022-09-27T03:48:15;96024.06;;;12.20;100.00
63907;BME280;50075;49.484;11.238;2022-09-27T03:50:41;96028.56;;;12.18;100.00
63907;BME280;50075;49.484;11.238;2022-09-27T03:53:06;96029.28;;;11.86;100.00
63907;BME280;50075;49.484;11.238;2022-09-27T03:55:32;96033.91;;;12.27;100.00
63907;BME280;50075;49.484;11.238;2022-09-27T03:57:57;96028.59;;;11.84;100.00
63907;BME280;50075;49.484;11.238;2022-09-27T04:00:23;96028.78;;;12.26;100.00
63907;BME280;50075;49.484;11.238;2022-09-27T04:02:50;96025.84;;;12.74;100.00
63907;BME280;50075;49.484;11.238;2022-09-27T04:05:15;96023.47;;;12.05;100.00
63907;BME280;50075;49.484;11.238;2022-09-27T04:07:46;96027.63;;;12.07;100.00
63907;BME280;50075;49.484;11.238;2022-09-27T04:10:12;96027.63;;;12.30;100.00
63907;BME280;50075;49.484;11.238;2022-09-27T04:12:38;96016.56;;;11.81;100.00
63907;BME280;50075;49.484;11.238;2022-09-27T04:15:04;96035.47;;;11.96;100.00
63907;BME280;50075;49.484;11.238;2022-09-27T04:17:30;96031.13;;;12.40;100.00
63907;BME280;50075;49.484;11.238;2022-09-27T04:19:55;96025.59;;;12.11;100.00
63907;BME280;50075;49.484;11.238;2022-09-27T04:22:21;96029.81;;;12.89;100.00
63907;BME280;50075;49.484;11.238;2022-09-27T04:24:48;96036.16;;;11.87;100.00
63907;BME280;50075;49.484;11.238;2022-09-27T04:27:13;96029.75;;;12.25;100.00
63907;BME280;50075;49.484;11.238;2022-09-27T04:29:38;96033.75;;;13.05;100.00
63907;BME280;50075;49.484;11.238;2022-09-27T04:32:07;96025.88;;;13.16;100.00
63907;BME280;50075;49.484;11.238;2022-09-27T04:34:32;96019.06;;;12.28;100.00
63907;BME280;50075;49.484;11.238;2022-09-27T04:37:16;96015.75;;;12.03;100.00
63907;BME280;50075;49.484;11.238;2022-09-27T04:39:41;96019.22;;;12.15;100.00
63907;BME280;50075;49.484;11.238;2022-09-27T04:42:07;96028.78;;;12.37;100.00
63907;BME280;50075;49.484;11.238;2022-09-27T04:44:33;96012.78;;;12.63;100.00
63907;BME280;50075;49.484;11.238;2022-09-27T04:46:58;96016.91;;;12.44;100.00
63907;BME280;50075;49.484;11.238;2022-09-27T04:49:24;96017.81;;;12.54;100.00
63907;BME280;50075;49.484;11.238;2022-09-27T04:51:49;96017.41;;;12.27;100.00
63907;BME280;50075;49.484;11.238;2022-09-27T04:54:14;96010.66;;;11.68;100.00
63907;BME280;50075;49.484;11.238;2022-09-27T04:56:40;96024.56;;;13.43;100.00
63907;BME280;50075;49.484;11.238;2022-09-27T04:59:06;96027.16;;;12.68;100.00
63907;BME280;50075;49.484;11.238;2022-09-27T05:01:31;96044.28;;;13.47;100.00
63907;BME280;50075;49.484;11.238;2022-09-27T05:03:57;96042.88;;;13.95;100.00
63907;BME280;50075;49.484;11.238;2022-09-27T05:06:23;96049.09;;;13.73;100.00
63907;BME280;50075;49.484;11.238;2022-09-27T05:08:48;96047.88;;;13.46;100.00
63907;BME280;50075;49.484;11.238;2022-09-27T05:11:13;96042.28;;;12.65;100.00
63907;BME280;50075;49.484;11.238;2022-09-27T05:13:39;96045.66;;;12.77;100.00
63907;BME280;50075;49.484;11.238;2022-09-27T05:16:04;96039.31;;;13.44;100.00
63907;BME280;50075;49.484;11.238;2022-09-27T05:18:30;96051.19;;;13.16;100.00
63907;BME280;50075;49.484;11.238;2022-09-27T05:20:55;96048.56;;;12.62;100.00
63907;BME280;50075;49.484;11.238;2022-09-27T05:23:23;96052.03;;;12.51;100.00
63907;BME280;50075;49.484;11.238;2022-09-27T05:25:48;96056.19;;;12.54;100.00
63907;BME280;50075;49.484;11.238;2022-09-27T05:28:13;96058.63;;;12.78;100.00
63907;BME280;50075;49.484;11.238;2022-09-27T05:30:39;96075.25;;;13.63;100.00
63907;BME280;50075;49.484;11.238;2022-09-27T05:33:04;96075.53;;;13.39;100.00
63907;BME280;50075;49.484;11.238;2022-09-27T05:35:30;96073.81;;;13.17;100.00
63907;BME280;50075;49.484;11.238;2022-09-27T05:37:57;96082.19;;;12.67;100.00
63907;BME280;50075;49.484;11.238;2022-09-27T05:40:23;96087.91;;;12.61;100.00
63907;BME280;50075;49.484;11.238;2022-09-27T05:42:52;96091.53;;;12.37;100.00
63907;BME280;50075;49.484;11.238;2022-09-27T05:45:19;96088.41;;;11.87;100.00
63907;BME280;50075;49.484;11.238;2022-09-27T05:47:55;96102.00;;;12.37;100.00
63907;BME280;50075;49.484;11.238;2022-09-27T05:50:21;96101.34;;;12.56;100.00
63907;BME280;50075;49.484;11.238;2022-09-27T05:52:47;96101.94;;;11.69;100.00
63907;BME280;50075;49.484;11.238;2022-09-27T05:55:13;96110.00;;;11.77;100.00
63907;BME280;50075;49.484;11.238;2022-09-27T05:57:39;96113.31;;;11.80;100.00
63907;BME280;50075;49.484;11.238;2022-09-27T06:00:04;96112.19;;;12.18;100.00
63907;BME280;50075;49.484;11.238;2022-09-27T06:02:30;96114.00;;;12.17;100.00
63907;BME280;50075;49.484;11.238;2022-09-27T06:04:56;96110.91;;;12.01;100.00
63907;BME280;50075;49.484;11.238;2022-09-27T06:07:21;96115.28;;;12.00;100.00
63907;BME280;50075;49.484;11.238;2022-09-27T06:09:47;96119.16;;;11.83;100.00
63907;BME280;50075;49.484;11.238;2022-09-27T06:12:12;96122.56;;;11.72;100.00
63907;BME280;50075;49.484;11.238;2022-09-27T06:14:38;96119.94;;;11.61;100.00
63907;BME280;50075;49.484;11.238;2022-09-27T06:17:04;96120.31;;;11.56;100.00
63907;BME280;50075;49.484;11.238;2022-09-27T06:19:30;96119.75;;;11.87;100.00
63907;BME280;50075;49.484;11.238;2022-09-27T06:21:55;96117.44;;;11.95;100.00
63907;BME280;50075;49.484;11.238;2022-09-27T06:24:20;96120.03;;;12.06;100.00
63907;BME280;50075;49.484;11.238;2022-09-27T06:26:46;96118.28;;;11.60;100.00
63907;BME280;50075;49.484;11.238;2022-09-27T06:29:11;96123.22;;;11.41;100.00
63907;BME280;50075;49.484;11.238;2022-09-27T06:31:37;96127.88;;;12.40;100.00
63907;BME280;50075;49.484;11.238;2022-09-27T06:34:02;96119.22;;;12.28;100.00
63907;BME280;50075;49.484;11.238;2022-09-27T06:36:27;96121.69;;;12.07;100.00
63907;BME280;50075;49.484;11.238;2022-09-27T06:38:53;96126.22;;;12.05;100.00
63907;BME280;50075;49.484;11.238;2022-09-27T06:41:18;96124.06;;;12.10;100.00
63907;BME280;50075;49.484;11.238;2022-09-27T06:43:44;96123.31;;;11.86;100.00
63907;BME280;50075;49.484;11.238;2022-09-27T06:46:09;96127.88;;;11.95;100.00
63907;BME280;50075;49.484;11.238;2022-09-27T06:48:35;96130.25;;;11.98;100.00
63907;BME280;50075;49.484;11.238;2022-09-27T06:51:02;96129.69;;;12.06;100.00
63907;BME280;50075;49.484;11.238;2022-09-27T06:53:28;96126.91;;;12.07;100.00
63907;BME280;50075;49.484;11.238;2022-09-27T06:56:00;96138.34;;;12.18;100.00
63907;BME280;50075;49.484;11.238;2022-09-27T06:58:27;96138.56;;;12.03;100.00
63907;BME280;50075;49.484;11.238;2022-09-27T07:01:11;96140.94;;;12.63;100.00
63907;BME280;50075;49.484;11.238;2022-09-27T07:03:37;96146.19;;;12.29;100.00
63907;BME280;50075;49.484;11.238;2022-09-27T07:06:07;96159.22;;;12.85;100.00
63907;BME280;50075;49.484;11.238;2022-09-27T07:08:36;96154.88;;;12.41;100.00
63907;BME280;50075;49.484;11.238;2022-09-27T07:11:06;96147.28;;;13.90;100.00
63907;BME280;50075;49.484;11.238;2022-09-27T07:13:32;96150.19;;;13.22;100.00
63907;BME280;50075;49.484;11.238;2022-09-27T07:15:59;96154.84;;;13.18;100.00
63907;BME280;50075;49.484;11.238;2022-09-27T07:18:26;96166.78;;;13.00;100.00
63907;BME280;50075;49.484;11.238;2022-09-27T07:20:52;96175.38;;;13.34;100.00
63907;BME280;50075;49.484;11.238;2022-09-27T07:23:17;96176.94;;;13.25;100.00
63907;BME280;50075;49.484;11.238;2022-09-27T07:25:43;96185.69;;;13.47;100.00
63907;BME280;50075;49.484;11.238;2022-09-27T07:28:13;96180.91;;;13.20;100.00
63907;BME280;50075;49.484;11.238;2022-09-27T07:30:39;96200.03;;;13.20;100.00
63907;BME280;50075;49.484;11.238;2022-09-27T07:33:05;96195.50;;;13.22;100.00
63907;BME280;50075;49.484;11.238;2022-09-27T07:35:31;96201.47;;;13.89;100.00
63907;BME280;50075;49.484;11.238;2022-09-27T07:37:57;96203.44;;;13.00;100.00
63907;BME280;50075;49.484;11.238;2022-09-27T07:40:23;96207.38;;;12.94;100.00
63907;BME280;50075;49.484;11.238;2022-09-27T07:42:56;96220.16;;;13.63;100.00
63907;BME280;50075;49.484;11.238;2022-09-27T07:45:22;96212.00;;;13.02;100.00
63907;BME280;50075;49.484;11.238;2022-09-27T07:47:48;96216.00;;;13.06;100.00
63907;BME280;50075;49.484;11.238;2022-09-27T07:50:14;96220.81;;;12.67;100.00
63907;BME280;50075;49.484;11.238;2022-09-27T07:52:41;96231.75;;;12.95;100.00
63907;BME280;50075;49.484;11.238;2022-09-27T07:55:08;96222.19;;;13.05;100.00
63907;BME280;50075;49.484;11.238;2022-09-27T07:57:35;96231.66;;;13.28;100.00
63907;BME280;50075;49.484;11.238;2022-09-27T08:00:01;96228.13;;;13.94;100.00
63907;BME280;50075;49.484;11.238;2022-09-27T08:02:26;96223.50;;;13.22;100.00
63907;BME280;50075;49.484;11.238;2022-09-27T08:04:52;96231.50;;;13.85;100.00
63907;BME280;50075;49.484;11.238;2022-09-27T08:07:17;96239.00;;;13.57;100.00
63907;BME280;50075;49.484;11.238;2022-09-27T08:09:42;96238.28;;;14.51;100.00
63907;BME280;50075;49.484;11.238;2022-09-27T08:12:08;96241.91;;;13.43;100.00
63907;BME280;50075;49.484;11.238;2022-09-27T08:14:35;96237.41;;;13.34;100.00
63907;BME280;50075;49.484;11.238;2022-09-27T08:17:00;96245.31;;;14.29;100.00
63907;BME280;50075;49.484;11.238;2022-09-27T08:19:25;96249.06;;;13.41;100.00
63907;BME280;50075;49.484;11.238;2022-09-27T08:21:51;96248.91;;;13.86;100.00
63907;BME280;50075;49.484;11.238;2022-09-27T08:24:19;96251.31;;;13.78;100.00
63907;BME280;50075;49.484;11.238;2022-09-27T08:26:45;96256.53;;;13.23;100.00
63907;BME280;50075;49.484;11.238;2022-09-27T08:29:10;96268.41;;;13.93;100.00
63907;BME280;50075;49.484;11.238;2022-09-27T08:31:36;96268.69;;;13.35;100.00
63907;BME280;50075;49.484;11.238;2022-09-27T08:34:02;96267.88;;;13.67;100.00
63907;BME280;50075;49.484;11.238;2022-09-27T08:36:28;96260.53;;;14.35;100.00
63907;BME280;50075;49.484;11.238;2022-09-27T08:38:54;96260.16;;;13.98;100.00
63907;BME280;50075;49.484;11.238;2022-09-27T08:52:44;96270.88;;;16.09;100.00
63907;BME280;50075;49.484;11.238;2022-09-27T08:57:51;96258.84;;;15.87;100.00
63907;BME280;50075;49.484;11.238;2022-09-27T09:00:19;96259.25;;;16.11;100.00
63907;BME280;50075;49.484;11.238;2022-09-27T09:02:44;96271.75;;;16.66;100.00
63907;BME280;50075;49.484;11.238;2022-09-27T09:05:15;96277.28;;;15.36;100.00
63907;BME280;50075;49.484;11.238;2022-09-27T09:08:03;96273.19;;;16.51;100.00
63907;BME280;50075;49.484;11.238;2022-09-27T09:10:56;96268.88;;;15.52;100.00
63907;BME280;50075;49.484;11.238;2022-09-27T09:16:42;96277.22;;;16.45;100.00
63907;BME280;50075;49.484;11.238;2022-09-27T09:27:33;96266.44;;;15.20;100.00
63907;BME280;50075;49.484;11.238;2022-09-27T09:30:04;96269.88;;;15.51;100.00
63907;BME280;50075;49.484;11.238;2022-09-27T09:35:38;96278.06;;;15.17;100.00
63907;BME280;50075;49.484;11.238;2022-09-27T09:38:22;96282.94;;;14.39;100.00
63907;BME280;50075;49.484;11.238;2022-09-27T09:40:58;96295.59;;;15.07;100.00
63907;BME280;50075;49.484;11.238;2022-09-27T09:43:34;96300.56;;;14.79;100.00
63907;BME280;50075;49.484;11.238;2022-09-27T09:51:05;96311.94;;;13.62;100.00
63907;BME280;50075;49.484;11.238;2022-09-27T09:56:33;96308.38;;;14.06;100.00
63907;BME280;50075;49.484;11.238;2022-09-27T09:59:03;96311.84;;;14.28;100.00
63907;BME280;50075;49.484;11.238;2022-09-27T10:01:43;96299.47;;;15.53;100.00
63907;BME280;50075;49.484;11.238;2022-09-27T10:04:28;96296.31;;;14.04;100.00
63907;BME280;50075;49.484;11.238;2022-09-27T10:06:56;96304.09;;;14.48;100.00
63907;BME280;50075;49.484;11.238;2022-09-27T10:09:25;96307.66;;;14.58;100.00
63907;BME280;50075;49.484;11.238;2022-09-27T10:11:51;96309.09;;;14.51;100.00
63907;BME280;50075;49.484;11.238;2022-09-27T10:14:19;96312.66;;;14.50;100.00
63907;BME280;50075;49.484;11.238;2022-09-27T10:16:48;96302.13;;;13.86;100.00
63907;BME280;50075;49.484;11.238;2022-09-27T10:19:27;96303.16;;;14.49;100.00
63907;BME280;50075;49.484;11.238;2022-09-27T10:22:00;96298.78;;;14.17;100.00
63907;BME280;50075;49.484;11.238;2022-09-27T10:24:26;96300.94;;;14.54;100.00
63907;BME280;50075;49.484;11.238;2022-09-27T10:26:57;96299.06;;;15.08;100.00
63907;BME280;50075;49.484;11.238;2022-09-27T10:29:29;96303.63;;;14.84;100.00
63907;BME280;50075;49.484;11.238;2022-09-27T10:31:55;96300.63;;;14.89;100.00
63907;BME280;50075;49.484;11.238;2022-09-27T10:34:37;96300.59;;;14.37;100.00
63907;BME280;50075;49.484;11.238;2022-09-27T10:39:37;96291.41;;;14.95;100.00
63907;BME280;50075;49.484;11.238;2022-09-27T10:42:29;96289.84;;;14.92;100.00
63907;BME280;50075;49.484;11.238;2022-09-27T10:44:56;96292.06;;;15.97;100.00
63907;BME280;50075;49.484;11.238;2022-09-27T10:47:22;96292.56;;;15.12;100.00
63907;BME280;50075;49.484;11.238;2022-09-27T10:49:50;96290.81;;;15.22;100.00
63907;BME280;50075;49.484;11.238;2022-09-27T10:52:21;96302.84;;;14.94;100.00
63907;BME280;50075;49.484;11.238;2022-09-27T10:55:05;96297.06;;;14.69;100.00
63907;BME280;50075;49.484;11.238;2022-09-27T10:57:32;96313.63;;;14.91;100.00
63907;BME280;50075;49.484;11.238;2022-09-27T11:00:07;96315.03;;;14.32;100.00
63907;BME280;50075;49.484;11.238;2022-09-27T11:02:54;96345.72;;;14.73;100.00
63907;BME280;50075;49.484;11.238;2022-09-27T11:07:56;96341.63;;;13.62;100.00
63907;BME280;50075;49.484;11.238;2022-09-27T11:10:30;96346.34;;;12.56;100.00
63907;BME280;50075;49.484;11.238;2022-09-27T11:13:17;96347.84;;;13.27;100.00
63907;BME280;50075;49.484;11.238;2022-09-27T11:27:30;96350.63;;;12.68;100.00
63907;BME280;50075;49.484;11.238;2022-09-27T11:30:16;96351.66;;;13.23;100.00
63907;BME280;50075;49.484;11.238;2022-09-27T11:32:51;96353.88;;;14.05;100.00
63907;BME280;50075;49.484;11.238;2022-09-27T11:35:39;96341.47;;;13.75;100.00
63907;BME280;50075;49.484;11.238;2022-09-27T11:46:35;96329.44;;;14.79;100.00
63907;BME280;50075;49.484;11.238;2022-09-27T11:59:49;96332.06;;;13.73;100.00
63907;BME280;50075;49.484;11.238;2022-09-27T12:10:40;96344.13;;;15.13;100.00
63907;BME280;50075;49.484;11.238;2022-09-27T12:13:10;96326.53;;;15.44;100.00
63907;BME280;50075;49.484;11.238;2022-09-27T12:15:41;96328.19;;;15.45;100.00
63907;BME280;50075;49.484;11.238;2022-09-27T12:18:23;96326.66;;;16.03;100.00
63907;BME280;50075;49.484;11.238;2022-09-27T12:20:51;96328.38;;;15.73;100.00
63907;BME280;50075;49.484;11.238;2022-09-27T12:23:33;96327.94;;;14.44;100.00
63907;BME280;50075;49.484;11.238;2022-09-27T12:26:08;96331.84;;;14.29;100.00
63907;BME280;50075;49.484;11.238;2022-09-27T12:28:38;96339.88;;;13.84;100.00
63907;BME280;50075;49.484;11.238;2022-09-27T12:33:50;96341.31;;;13.88;100.00
63907;BME280;50075;49.484;11.238;2022-09-27T12:36:22;96344.13;;;13.96;100.00
63907;BME280;50075;49.484;11.238;2022-09-27T12:41:21;96321.75;;;14.67;100.00
63907;BME280;50075;49.484;11.238;2022-09-27T12:43:49;96315.53;;;14.89;100.00
63907;BME280;50075;49.484;11.238;2022-09-27T12:46:39;96320.03;;;14.56;100.00
63907;BME280;50075;49.484;11.238;2022-09-27T12:51:46;96326.84;;;14.26;100.00
63907;BME280;50075;49.484;11.238;2022-09-27T13:00:15;96311.75;;;15.53;100.00
63907;BME280;50075;49.484;11.238;2022-09-27T13:03:09;96313.72;;;14.37;100.00
63907;BME280;50075;49.484;11.238;2022-09-27T13:05:58;96306.16;;;14.96;100.00
63907;BME280;50075;49.484;11.238;2022-09-27T13:13:57;96308.31;;;14.39;100.00
63907;BME280;50075;49.484;11.238;2022-09-27T13:16:25;96315.59;;;14.14;100.00
63907;BME280;50075;49.484;11.238;2022-09-27T13:29:51;96317.03;;;15.12;100.00
63907;BME280;50075;49.484;11.238;2022-09-27T13:32:23;96312.53;;;14.51;100.00
63907;BME280;50075;49.484;11.238;2022-09-27T13:34:57;96323.81;;;14.21;100.00
63907;BME280;50075;49.484;11.238;2022-09-27T13:45:38;96308.97;;;15.04;100.00
63907;BME280;50075;49.484;11.238;2022-09-27T13:48:20;96317.16;;;14.38;100.00
63907;BME280;50075;49.484;11.238;2022-09-27T13:51:05;96320.91;;;14.24;100.00
63907;BME280;50075;49.484;11.238;2022-09-27T13:53:40;96318.53;;;14.74;100.00
63907;BME280;50075;49.484;11.238;2022-09-27T13:59:12;96317.69;;;14.20;100.00
63907;BME280;50075;49.484;11.238;2022-09-27T14:01:40;96316.88;;;15.14;100.00
63907;BME280;50075;49.484;11.238;2022-09-27T14:04:40;96326.53;;;14.19;100.00
63907;BME280;50075;49.484;11.238;2022-09-27T14:07:10;96318.06;;;14.69;100.00
63907;BME280;50075;49.484;11.238;2022-09-27T14:09:39;96319.97;;;14.46;100.00
63907;BME280;50075;49.484;11.238;2022-09-27T14:12:11;96313.38;;;14.52;100.00
63907;BME280;50075;49.484;11.238;2022-09-27T14:14:37;96322.28;;;14.60;100.00
63907;BME280;50075;49.484;11.238;2022-09-27T14:17:06;96328.41;;;13.96;100.00
63907;BME280;50075;49.484;11.238;2022-09-27T14:19:38;96339.94;;;15.10;100.00
63907;BME280;50075;49.484;11.238;2022-09-27T14:22:13;96334.47;;;14.29;100.00
63907;BME280;50075;49.484;11.238;2022-09-27T14:29:46;96324.00;;;14.71;100.00
63907;BME280;50075;49.484;11.238;2022-09-27T14:32:17;96324.31;;;14.36;100.00
63907;BME280;50075;49.484;11.238;2022-09-27T14:34:43;96306.13;;;13.69;100.00
63907;BME280;50075;49.484;11.238;2022-09-27T14:37:24;96292.72;;;13.84;100.00
63907;BME280;50075;49.484;11.238;2022-09-27T14:39:58;96278.34;;;13.23;100.00
63907;BME280;50075;49.484;11.238;2022-09-27T14:42:27;96295.25;;;13.08;100.00
63907;BME280;50075;49.484;11.238;2022-09-27T14:44:55;96314.84;;;14.23;100.00
63907;BME280;50075;49.484;11.238;2022-09-27T14:47:26;96323.44;;;13.82;100.00
63907;BME280;50075;49.484;11.238;2022-09-27T14:52:30;96320.19;;;14.01;100.00
63907;BME280;50075;49.484;11.238;2022-09-27T14:54:58;96322.75;;;13.80;100.00
63907;BME280;50075;49.484;11.238;2022-09-27T14:57:25;96321.25;;;13.66;100.00
63907;BME280;50075;49.484;11.238;2022-09-27T14:59:51;96318.69;;;14.19;100.00
63907;BME280;50075;49.484;11.238;2022-09-27T15:02:19;96316.56;;;14.34;100.00
63907;BME280;50075;49.484;11.238;2022-09-27T15:04:47;96311.19;;;14.57;100.00
63907;BME280;50075;49.484;11.238;2022-09-27T15:07:16;96319.69;;;14.07;100.00
63907;BME280;50075;49.484;11.238;2022-09-27T15:09:42;96320.63;;;13.74;100.00
63907;BME280;50075;49.484;11.238;2022-09-27T15:12:12;96326.97;;;13.71;100.00
63907;BME280;50075;49.484;11.238;2022-09-27T15:14:40;96312.69;;;13.96;100.00
63907;BME280;50075;49.484;11.238;2022-09-27T15:17:18;96315.06;;;13.56;100.00
63907;BME280;50075;49.484;11.238;2022-09-27T15:20:14;96310.56;;;14.43;100.00
63907;BME280;50075;49.484;11.238;2022-09-27T15:22:42;96317.09;;;13.52;100.00
63907;BME280;50075;49.484;11.238;2022-09-27T15:25:28;96309.78;;;14.11;100.00
63907;BME280;50075;49.484;11.238;2022-09-27T15:28:18;96299.88;;;13.82;100.00
63907;BME280;50075;49.484;11.238;2022-09-27T15:30:54;96310.19;;;13.62;100.00
63907;BME280;50075;49.484;11.238;2022-09-27T15:33:23;96311.44;;;14.12;100.00
63907;BME280;50075;49.484;11.238;2022-09-27T15:35:51;96307.25;;;13.44;100.00
63907;BME280;50075;49.484;11.238;2022-09-27T15:38:26;96313.44;;;13.55;100.00
63907;BME280;50075;49.484;11.238;2022-09-27T15:43:30;96316.41;;;13.05;100.00
63907;BME280;50075;49.484;11.238;2022-09-27T15:45:58;96320.47;;;13.43;100.00
63907;BME280;50075;49.484;11.238;2022-09-27T15:48:29;96317.75;;;13.10;100.00
63907;BME280;50075;49.484;11.238;2022-09-27T15:50:56;96317.84;;;12.86;100.00